Time;durP1;ratioP1;P1;durP2;ratioP2;P2;SDS_P1;SDS_P2;PMS_P1;PMS_P2;Temp;Humidity;BMP_temperature;BMP_pressure;BME280_temperature;BME280_humidity;BME280_pressure;Samples;Min_cycle;Max_cycle;Signal;HPM_P1;HPM_P2
2022/11/25 00:01:40;;;;;;;9.38;5.38;;;;;;;-4.79;78.99;100177.13;4935829;28;20417;-69
2022/11/25 00:04:05;;;;;;;7.10;4.65;;;;;;;-4.81;78.75;100170.19;4913717;28;20549;-70
2022/11/25 00:06:32;;;;;;;13.25;5.97;;;;;;;-4.78;79.24;100180.59;4912053;28;20034;-71
2022/11/25 00:09:03;;;;;;;10.55;6.93;;;;;;;-4.71;79.75;100181.44;4921091;28;20039;-72
2022/11/25 00:11:28;;;;;;;9.20;4.90;;;;;;;-4.78;79.43;100181.47;4922425;28;20478;-71
2022/11/25 00:13:54;;;;;;;9.38;5.47;;;;;;;-4.71;79.96;100181.44;4900308;28;20244;-75
2022/11/25 00:16:21;;;;;;;11.38;6.22;;;;;;;-4.81;80.21;100175.38;4922070;28;20035;-75
2022/11/25 00:18:51;;;;;;;10.23;5.55;;;;;;;-4.90;79.47;100181.47;4893069;28;20046;-75
2022/11/25 00:21:19;;;;;;;9.68;5.38;;;;;;;-4.93;79.65;100188.41;4928565;28;20537;-76
2022/11/25 00:23:44;;;;;;;11.15;5.53;;;;;;;-4.88;80.05;100187.53;4927228;28;20078;-67
2022/11/25 00:26:13;;;;;;;8.73;4.68;;;;;;;-4.89;80.26;100196.22;4922777;28;20042;-67
2022/11/25 00:28:38;;;;;;;9.60;5.05;;;;;;;-4.87;80.43;100194.47;4902233;28;20171;-69
2022/11/25 00:31:07;;;;;;;11.05;5.63;;;;;;;-4.94;80.36;100195.34;4910409;28;20157;-70
2022/11/25 00:33:32;;;;;;;9.05;4.72;;;;;;;-4.94;80.17;100197.06;4920559;28;20652;-69
2022/11/25 00:36:00;;;;;;;11.70;5.75;;;;;;;-4.85;80.05;100210.06;4922015;28;20413;-70
2022/11/25 00:38:24;;;;;;;7.55;5.32;;;;;;;-4.92;80.05;100195.34;4906440;28;20042;-68
2022/11/25 00:44:34;;;;;;;7.07;3.53;;;;;;;-4.85;79.78;100192.72;4940620;28;20089;-74
2022/11/25 00:46:19;;;;;;;9.10;4.63;;;;;;;-4.89;80.40;100188.41;4940746;28;20421;-73
2022/11/25 00:48:43;;;;;;;8.30;4.78;;;;;;;-4.86;79.88;100201.41;4897193;29;20055;-68
2022/11/25 00:51:08;;;;;;;8.52;4.60;;;;;;;-4.84;80.43;100204.84;4921757;28;20454;-72
2022/11/25 00:53:33;;;;;;;7.38;4.70;;;;;;;-4.83;80.12;100201.38;4923331;28;20038;-68
2022/11/25 00:56:13;;;;;;;10.63;4.53;;;;;;;-4.83;79.56;100200.53;4939785;28;20094;-68
2022/11/25 00:58:39;;;;;;;7.90;5.15;;;;;;;-4.81;79.48;100204.88;4945021;28;20157;-68
2022/11/25 01:01:04;;;;;;;9.52;5.50;;;;;;;-4.81;79.62;100207.47;4929013;28;20109;-68
2022/11/25 01:03:28;;;;;;;8.05;4.53;;;;;;;-4.79;79.00;100203.13;4946344;28;20038;-70
2022/11/25 01:05:53;;;;;;;13.38;5.75;;;;;;;-4.76;79.14;100208.34;4938761;28;20050;-65
2022/11/25 01:08:18;;;;;;;8.15;4.93;;;;;;;-4.75;78.64;100206.63;4921456;28;20034;-72
2022/11/25 01:10:42;;;;;;;9.63;5.15;;;;;;;-4.74;78.91;100199.69;4940559;28;20089;-73
2022/11/25 01:13:07;;;;;;;9.05;5.30;;;;;;;-4.77;78.01;100200.53;4937229;28;20493;-69
2022/11/25 01:15:36;;;;;;;7.88;4.93;;;;;;;-4.72;78.27;100209.19;4938043;28;20516;-71
2022/11/25 01:18:00;;;;;;;8.23;4.97;;;;;;;-4.68;78.66;100215.25;4938775;28;20070;-66
2022/11/25 01:20:25;;;;;;;7.75;4.55;;;;;;;-4.67;79.12;100217.00;4918509;28;20074;-67
2022/11/25 01:22:51;;;;;;;4.38;2.03;;;;;;;-4.50;80.11;100208.28;4920384;28;20073;-71
2022/11/25 01:25:16;;;;;;;8.50;5.35;;;;;;;-4.71;79.96;100215.25;4923547;28;20043;-72
2022/11/25 01:27:41;;;;;;;11.20;5.93;;;;;;;-4.73;79.82;100224.78;4956236;28;20078;-71
2022/11/25 01:30:07;;;;;;;10.35;5.30;;;;;;;-4.76;80.23;100223.94;4920049;28;20170;-72
2022/11/25 01:32:31;;;;;;;11.77;5.10;;;;;;;-4.82;79.85;100223.06;4930707;28;20046;-69
2022/11/25 01:34:56;;;;;;;8.73;4.78;;;;;;;-4.83;78.99;100221.31;4936105;28;20035;-68
2022/11/25 01:37:21;;;;;;;10.48;5.18;;;;;;;-4.81;79.09;100230.88;4937748;28;20038;-68
2022/11/25 01:39:46;;;;;;;8.15;5.15;;;;;;;-4.58;79.46;100230.84;4902800;28;20054;-68
2022/11/25 01:42:11;;;;;;;9.30;4.57;;;;;;;-4.58;79.28;100235.19;4937501;28;20042;-68
2022/11/25 01:44:38;;;;;;;7.57;4.82;;;;;;;-4.62;78.73;100233.44;4915607;28;20051;-67
2022/11/25 01:47:22;;;;;;;10.35;5.88;;;;;;;-4.77;78.49;100231.75;4918436;28;20121;-65
2022/11/25 01:50:09;;;;;;;6.03;3.72;;;;;;;-4.59;77.79;100230.84;4921563;28;20047;-65
2022/11/25 01:52:42;;;;;;;5.20;2.95;;;;;;;-4.70;77.19;100235.19;4926791;28;20064;-65
2022/11/25 01:55:14;;;;;;;9.05;5.38;;;;;;;-4.87;76.79;100224.81;4933042;28;20058;-68
2022/11/25 01:57:50;;;;;;;;;;;;;;;-4.94;77.01;100242.13;4904319;28;20049;-69
2022/11/25 02:00:15;;;;;;;7.55;5.18;;;;;;;-5.01;76.72;100237.81;4900986;28;19918;-66
2022/11/25 02:02:46;;;;;;;9.90;5.43;;;;;;;-5.01;77.01;100237.81;4916356;28;20371;-67
2022/11/25 02:05:14;;;;;;;12.10;5.40;;;;;;;-5.07;77.50;100242.97;4902204;28;20493;-70
2022/11/25 02:07:42;;;;;;;6.75;4.95;;;;;;;-5.02;77.75;100240.41;4917341;28;20130;-74
2022/11/25 02:10:29;;;;;;;7.82;4.50;;;;;;;-4.95;77.13;100240.41;4901484;28;20042;-71
2022/11/25 02:12:54;;;;;;;8.55;5.70;;;;;;;-5.00;77.79;100249.94;4917115;28;20046;-69
2022/11/25 02:15:20;;;;;;;8.93;5.18;;;;;;;-5.08;77.60;100240.41;4919157;28;20045;-72
2022/11/25 02:17:45;;;;;;;9.10;5.55;;;;;;;-5.11;77.64;100241.25;4903357;28;20147;-72
2022/11/25 02:20:29;;;;;;;8.98;3.78;;;;;;;-4.94;78.10;100230.88;4920935;28;20095;-72
2022/11/25 02:23:13;;;;;;;5.75;4.07;;;;;;;-5.02;78.08;100235.19;4902378;28;20046;-73
2022/11/25 02:25:43;;;;;;;10.70;5.72;;;;;;;-5.00;78.36;100228.28;4900947;28;20526;-72
2022/11/25 02:28:18;;;;;;;9.98;5.28;;;;;;;-4.98;78.22;100242.16;4933647;28;20054;-70
2022/11/25 02:30:43;;;;;;;10.70;5.40;;;;;;;-5.04;78.39;100236.94;4924819;28;20050;-70
2022/11/25 02:33:09;;;;;;;11.38;6.05;;;;;;;-5.02;78.29;100233.47;4919484;28;20777;-72
2022/11/25 02:35:49;;;;;;;16.35;6.35;;;;;;;-5.03;78.32;100239.53;4938676;28;20588;-77
2022/11/25 02:38:20;;;;;;;7.78;4.82;;;;;;;-5.01;78.71;100239.53;4924733;28;20038;-81
2022/11/25 02:41:03;;;;;;;8.88;4.60;;;;;;;-4.94;78.62;100241.25;4888665;28;20055;-77
2022/11/25 02:43:27;;;;;;;10.25;5.80;;;;;;;-4.84;78.47;100256.00;4918864;28;20066;-72
2022/11/25 02:45:52;;;;;;;10.18;5.60;;;;;;;-4.87;78.30;100259.50;4911255;28;20173;-68
2022/11/25 02:48:18;;;;;;;8.73;5.03;;;;;;;-4.92;78.49;100258.59;4900381;28;20617;-68
2022/11/25 02:50:45;;;;;;;5.38;3.33;;;;;;;-4.80;78.41;100252.53;4935342;28;20536;-69
2022/11/25 02:53:09;;;;;;;11.40;5.80;;;;;;;-4.81;78.83;100259.47;4920340;28;20481;-66
2022/11/25 02:55:34;;;;;;;8.50;5.00;;;;;;;-4.90;78.39;100253.41;4919891;28;20049;-68
2022/11/25 02:57:59;;;;;;;12.82;5.85;;;;;;;-4.92;78.75;100258.59;4935326;28;20051;-69
2022/11/25 03:00:24;;;;;;;8.85;5.43;;;;;;;-4.92;78.37;100271.59;4910135;28;20055;-73
2022/11/25 03:02:52;;;;;;;8.55;5.63;;;;;;;-4.93;78.55;100267.28;4931326;28;20042;-76
2022/11/25 03:05:18;;;;;;;5.07;3.25;;;;;;;-4.82;79.02;100275.06;4914108;28;20074;-69
2022/11/25 03:07:43;;;;;;;10.48;6.25;;;;;;;-4.82;78.45;100264.69;4917138;28;20046;-69
2022/11/25 03:10:07;;;;;;;10.45;5.70;;;;;;;-4.85;78.88;100268.13;4912704;28;20045;-70
2022/11/25 03:12:32;;;;;;;10.95;6.38;;;;;;;-4.81;78.99;100267.28;4935149;28;20039;-72
2022/11/25 03:14:57;;;;;;;10.60;4.95;;;;;;;-4.72;78.68;100274.22;4915161;28;20129;-71
2022/11/25 03:17:22;;;;;;;10.98;6.35;;;;;;;-4.74;78.77;100278.56;4920057;28;21482;-71
2022/11/25 03:19:46;;;;;;;8.88;5.05;;;;;;;-4.82;78.53;100286.34;4918389;28;20466;-70
2022/11/25 03:22:11;;;;;;;9.23;5.57;;;;;;;-4.78;79.18;100295.91;4917255;28;20035;-69
2022/11/25 03:24:36;;;;;;;8.85;6.25;;;;;;;-4.76;79.06;100291.56;4901103;28;20910;-71
2022/11/25 03:27:01;;;;;;;10.20;6.18;;;;;;;-4.83;78.85;100294.16;4919912;28;20600;-70
2022/11/25 03:29:26;;;;;;;9.57;5.35;;;;;;;-4.83;78.91;100301.94;4901296;28;20126;-69
2022/11/25 03:31:51;;;;;;;7.38;5.25;;;;;;;-4.83;78.68;100310.63;4917212;28;20194;-70
2022/11/25 03:34:16;;;;;;;8.85;6.05;;;;;;;-4.79;78.82;100307.16;4905727;28;20046;-69
2022/11/25 03:36:41;;;;;;;9.90;5.82;;;;;;;-4.46;78.46;100305.44;4903413;28;20094;-67
2022/11/25 03:39:06;;;;;;;9.38;5.63;;;;;;;-4.46;77.53;100305.44;4922640;28;20457;-68
2022/11/25 03:41:33;;;;;;;16.25;7.30;;;;;;;-4.68;77.49;100304.56;4903244;28;20239;-69
2022/11/25 03:43:58;;;;;;;16.88;7.35;;;;;;;-4.83;77.97;100309.75;4895656;28;20066;-69
2022/11/25 03:46:23;;;;;;;12.70;7.32;;;;;;;-4.85;78.27;100327.94;4931493;28;20041;-71
2022/11/25 03:48:49;;;;;;;17.00;8.32;;;;;;;-4.89;78.39;100326.22;4927522;28;20511;-69
2022/11/25 03:51:14;;;;;;;11.80;7.03;;;;;;;-4.74;78.19;100334.94;4923554;28;20412;-71
2022/11/25 03:53:39;;;;;;;13.15;8.07;;;;;;;-4.63;77.44;100331.47;4907878;28;20078;-71
2022/11/25 03:56:06;;;;;;;11.18;6.50;;;;;;;-4.74;77.38;100319.31;4911151;28;20118;-70
2022/11/25 03:58:32;;;;;;;13.27;7.90;;;;;;;-4.85;78.05;100327.06;4918396;28;20066;-70
2022/11/25 04:01:00;;;;;;;11.35;6.88;;;;;;;-4.79;78.31;100327.97;4923938;28;20047;-71
2022/11/25 04:03:25;;;;;;;10.98;5.80;;;;;;;-4.70;77.81;100328.84;4930941;28;20113;-70
2022/11/25 04:05:50;;;;;;;6.53;4.80;;;;;;;-4.58;77.54;100324.50;4921878;28;20042;-69
2022/11/25 04:08:14;;;;;;;13.52;8.18;;;;;;;-4.68;77.01;100319.31;4922017;28;20413;-70
2022/11/25 04:10:39;;;;;;;9.30;5.93;;;;;;;-4.64;75.95;100328.84;4904660;28;20054;-69
2022/11/25 04:13:04;;;;;;;9.15;4.72;;;;;;;-4.62;75.51;100330.56;4902954;29;20049;-71
2022/11/25 04:15:34;;;;;;;12.77;6.80;;;;;;;-4.80;75.31;100341.84;4887626;28;20043;-69
2022/11/25 04:17:59;;;;;;;12.77;8.05;;;;;;;-4.96;76.25;100340.06;4906145;28;20062;-70
2022/11/25 04:20:24;;;;;;;9.55;5.60;;;;;;;-4.72;75.85;100343.56;4905791;28;20047;-68
2022/11/25 04:22:55;;;;;;;14.13;7.75;;;;;;;-4.80;75.47;100347.03;4905744;28;20069;-72
2022/11/25 04:25:20;;;;;;;14.57;5.38;;;;;;;-4.76;75.04;100343.59;4938304;28;20046;-72
2022/11/25 04:27:45;;;;;;;9.85;6.00;;;;;;;-4.78;75.23;100350.50;4939289;28;20047;-71
2022/11/25 04:30:12;;;;;;;16.52;8.82;;;;;;;-4.98;75.43;100340.94;4917535;28;20395;-71
2022/11/25 04:32:39;;;;;;;16.05;8.57;;;;;;;-5.06;75.63;100347.84;4937798;28;20038;-71
2022/11/25 04:35:06;;;;;;;14.65;7.20;;;;;;;-5.03;76.45;100351.31;4937954;28;20043;-71
2022/11/25 04:37:31;;;;;;;12.43;7.25;;;;;;;-5.06;76.33;100340.91;4913563;28;20073;-71
2022/11/25 04:39:56;;;;;;;9.65;6.35;;;;;;;-4.83;76.71;100343.56;4917323;28;20414;-72
2022/11/25 04:42:31;;;;;;;16.27;8.98;;;;;;;-4.93;76.35;100349.59;4938152;28;20039;-70
2022/11/25 04:45:09;;;;;;;13.75;7.35;;;;;;;-4.81;76.10;100337.50;4921640;28;20047;-71
2022/11/25 04:47:35;;;;;;;15.00;9.07;;;;;;;-4.99;76.27;100341.81;4921947;28;20045;-71
2022/11/25 04:50:01;;;;;;;16.58;8.77;;;;;;;-5.02;76.25;100334.00;4920929;28;20075;-71
2022/11/25 04:52:26;;;;;;;15.57;8.20;;;;;;;-5.06;76.97;100337.44;4908118;28;20401;-71
2022/11/25 04:54:52;;;;;;;15.65;7.50;;;;;;;-5.02;77.01;100337.47;4937597;28;20051;-71
2022/11/25 04:57:17;;;;;;;15.98;7.00;;;;;;;-4.70;76.60;100340.13;4904979;28;20056;-71
2022/11/25 04:59:44;;;;;;;9.15;5.68;;;;;;;-4.78;76.39;100344.44;4927351;28;20086;-72
2022/11/25 05:02:19;;;;;;;18.58;9.50;;;;;;;-4.92;76.43;100349.63;4907733;28;20546;-72
2022/11/25 05:04:57;;;;;;;14.30;8.68;;;;;;;-4.94;76.71;100347.88;4909328;28;20808;-72
2022/11/25 05:07:25;;;;;;;15.52;8.38;;;;;;;-4.99;77.28;100344.41;4923553;28;20053;-70
2022/11/25 05:09:52;;;;;;;13.13;7.63;;;;;;;-4.95;77.58;100348.72;4912623;28;20046;-68
2022/11/25 05:12:29;;;;;;;12.55;7.38;;;;;;;-4.87;77.58;100341.84;4920175;28;20046;-67
2022/11/25 05:14:54;;;;;;;14.27;8.43;;;;;;;-4.81;77.70;100350.50;4887752;29;20110;-68
2022/11/25 05:17:24;;;;;;;16.58;8.38;;;;;;;-4.70;77.60;100340.13;4917668;28;20114;-69
2022/11/25 05:19:49;;;;;;;13.90;7.50;;;;;;;-4.67;77.71;100341.84;4922293;28;20089;-69
2022/11/25 05:22:18;;;;;;;15.57;8.00;;;;;;;-4.71;77.31;100340.09;4921808;28;20046;-68
2022/11/25 05:24:44;;;;;;;15.52;7.68;;;;;;;-4.77;77.63;100354.84;4921157;28;20073;-68
2022/11/25 05:27:11;;;;;;;14.55;7.40;;;;;;;-4.80;77.76;100348.78;4913625;28;20134;-68
2022/11/25 05:29:36;;;;;;;12.95;7.07;;;;;;;-4.77;77.57;100352.25;4932532;28;20130;-70
2022/11/25 05:32:01;;;;;;;16.42;7.93;;;;;;;-4.72;78.06;100362.66;4922029;28;20054;-69
2022/11/25 05:34:26;;;;;;;22.33;7.68;;;;;;;-4.53;78.08;100350.53;4910656;28;20126;-69
2022/11/25 05:36:51;;;;;;;15.60;7.22;;;;;;;-4.43;77.82;100354.88;4886308;29;20046;-68
2022/11/25 05:39:17;;;;;;;16.55;8.65;;;;;;;-4.67;77.74;100362.66;4909291;28;20049;-68
2022/11/25 05:42:07;;;;;;;13.68;7.25;;;;;;;-4.72;78.09;100366.97;4853161;29;20162;-69
2022/11/25 05:44:32;;;;;;;13.32;7.63;;;;;;;-4.68;78.19;100358.31;4864876;29;20519;-68
2022/11/25 05:46:57;;;;;;;13.75;7.97;;;;;;;-4.67;78.39;100373.94;4868642;29;20107;-68
2022/11/25 05:49:22;;;;;;;12.75;7.38;;;;;;;-4.64;78.58;100357.47;4852795;29;20040;-70
2022/11/25 05:51:48;;;;;;;10.98;6.47;;;;;;;-4.61;78.76;100368.72;4838760;29;20079;-68
2022/11/25 05:54:13;;;;;;;17.55;8.40;;;;;;;-4.45;78.46;100374.81;4868505;29;20049;-68
2022/11/25 05:56:39;;;;;;;15.68;8.63;;;;;;;-4.51;78.12;100369.59;4834438;29;20041;-68
2022/11/25 05:59:22;;;;;;;14.93;8.30;;;;;;;-4.54;78.83;100370.50;4852740;29;20106;-67
2022/11/25 06:02:12;;;;;;;21.25;8.48;;;;;;;-4.55;78.47;100373.09;4847090;29;20111;-68
2022/11/25 06:04:38;;;;;;;15.73;8.70;;;;;;;-4.38;78.25;100366.16;4859866;29;20044;-68
2022/11/25 06:07:03;;;;;;;6.38;4.72;;;;;;;-4.25;77.84;100369.63;4844478;29;20069;-72
2022/11/25 06:09:28;;;;;;;18.20;8.48;;;;;;;-4.47;78.24;100372.22;4844459;29;20060;-68
2022/11/25 06:11:54;;;;;;;11.75;6.95;;;;;;;-4.52;78.06;100373.97;4841556;29;20067;-70
2022/11/25 06:14:19;;;;;;;13.02;7.93;;;;;;;-4.54;78.59;100387.84;4841575;29;20041;-70
2022/11/25 06:16:45;;;;;;;11.73;5.07;;;;;;;-4.27;78.38;100398.25;4843968;29;20064;-71
2022/11/25 06:19:20;;;;;;;13.07;8.45;;;;;;;-4.39;77.32;100390.44;4895613;28;20043;-71
2022/11/25 06:21:45;;;;;;;12.82;7.32;;;;;;;-4.32;77.79;100406.94;4901100;29;20174;-72
2022/11/25 06:24:11;;;;;;;16.05;7.70;;;;;;;-4.31;77.03;100404.34;4895535;28;20130;-70
2022/11/25 06:26:36;;;;;;;21.63;8.98;;;;;;;-4.35;76.53;100415.59;4920485;28;20082;-70
2022/11/25 06:29:01;;;;;;;14.75;7.22;;;;;;;-4.48;76.93;100406.91;4919625;28;20086;-70
2022/11/25 06:31:26;;;;;;;17.15;7.72;;;;;;;-4.53;76.40;100413.00;4919734;28;20050;-67
2022/11/25 06:34:10;;;;;;;11.55;6.50;;;;;;;-4.49;76.81;100412.13;4919092;28;20047;-68
2022/11/25 06:36:37;;;;;;;8.48;5.93;;;;;;;-4.45;76.99;100419.06;4917660;28;20047;-67
2022/11/25 06:39:02;;;;;;;13.68;7.38;;;;;;;-4.60;76.81;100413.81;4937649;28;20035;-67
2022/11/25 06:41:26;;;;;;;16.17;9.27;;;;;;;-4.69;77.03;100417.28;4920821;28;20089;-69
2022/11/25 06:43:51;;;;;;;14.18;7.45;;;;;;;-4.69;77.56;100413.81;4919833;28;20047;-68
2022/11/25 06:46:17;;;;;;;12.73;6.10;;;;;;;-4.52;77.17;100414.72;4910568;28;20054;-70
2022/11/25 06:48:42;;;;;;;17.27;9.70;;;;;;;-4.63;77.27;100416.44;4934432;28;20088;-69
2022/11/25 06:51:10;;;;;;;20.30;9.70;;;;;;;-4.74;77.38;100412.94;4938352;28;20137;-70
2022/11/25 06:53:35;;;;;;;15.38;7.00;;;;;;;-4.70;77.44;100404.28;4907689;28;20044;-68
2022/11/25 06:56:21;;;;;;;12.60;6.65;;;;;;;-4.59;77.85;100416.44;4919874;28;20050;-70
2022/11/25 06:58:47;;;;;;;19.35;9.70;;;;;;;-4.67;77.94;100422.50;4936703;28;20121;-71
2022/11/25 07:01:26;;;;;;;21.38;9.63;;;;;;;-4.55;77.68;100417.31;4880494;29;20421;-71
2022/11/25 07:03:58;;;;;;;13.45;6.90;;;;;;;-4.48;77.61;100429.47;4932247;28;20038;-73
2022/11/25 07:06:23;;;;;;;19.58;8.82;;;;;;;-4.50;77.74;100433.78;4919936;28;20046;-72
2022/11/25 07:08:48;;;;;;;16.85;9.57;;;;;;;-4.40;77.00;100433.81;4919573;28;20051;-74
2022/11/25 07:11:15;;;;;;;15.40;7.45;;;;;;;-4.47;77.23;100428.59;4904697;28;20094;-74
2022/11/25 07:13:40;;;;;;;15.00;6.93;;;;;;;-4.44;76.21;100433.81;4924934;28;20049;-74
2022/11/25 07:16:06;;;;;;;14.65;7.85;;;;;;;-4.51;76.18;100432.06;4942314;28;20042;-74
2022/11/25 07:18:33;;;;;;;24.98;10.77;;;;;;;-4.58;76.50;100435.50;4894836;28;20045;-70
2022/11/25 07:21:08;;;;;;;17.08;8.18;;;;;;;-4.60;77.19;100435.50;4944935;28;20048;-69
2022/11/25 07:23:34;;;;;;;13.60;8.05;;;;;;;-4.64;77.08;100445.94;4910069;28;20119;-69
2022/11/25 07:26:08;;;;;;;20.50;9.93;;;;;;;-4.70;77.25;100436.34;4916709;28;20046;-68
2022/11/25 07:28:34;;;;;;;14.20;8.15;;;;;;;-4.68;77.62;100441.56;4942125;28;20385;-69
2022/11/25 07:31:21;;;;;;;17.58;10.27;;;;;;;-4.48;77.46;100438.13;4923231;28;20047;-68
2022/11/25 07:33:47;;;;;;;16.33;9.50;;;;;;;-4.61;77.82;100446.78;4908778;28;20053;-70
2022/11/25 07:36:13;;;;;;;21.30;11.07;;;;;;;-4.58;77.55;100445.94;4929560;28;20133;-70
2022/11/25 07:38:39;;;;;;;21.10;10.13;;;;;;;-4.61;77.70;100445.91;4917648;28;20130;-70
2022/11/25 07:41:09;;;;;;;17.75;7.75;;;;;;;-4.52;77.98;100438.16;4908478;29;20051;-70
2022/11/25 07:43:35;;;;;;;17.65;8.98;;;;;;;-4.49;78.55;100440.72;4919950;28;20420;-73
2022/11/25 07:46:31;;;;;;;15.35;8.63;;;;;;;-4.41;78.59;100437.31;4950276;28;20417;-70
2022/11/25 07:48:57;;;;;;;;;;;;;;;-4.32;78.98;100448.59;4931209;28;20046;-71
2022/11/25 07:51:25;;;;;;;17.33;11.02;;;;;;;-4.41;78.56;100447.72;4933366;28;19918;-74
2022/11/25 07:53:51;;;;;;;15.02;9.02;;;;;;;-4.36;78.27;100446.84;4910619;28;20038;-73
2022/11/25 07:56:16;;;;;;;22.35;11.80;;;;;;;-4.39;78.10;100451.16;4907476;28;20042;-72
2022/11/25 07:58:42;;;;;;;15.65;9.07;;;;;;;-4.44;78.00;100452.03;4924870;28;20506;-70
2022/11/25 08:01:09;;;;;;;21.67;11.68;;;;;;;-4.53;78.41;100452.03;4917847;28;20525;-71
2022/11/25 08:03:36;;;;;;;14.15;6.40;;;;;;;-4.42;78.45;100464.19;4907268;28;20806;-67
2022/11/25 08:06:03;;;;;;;24.35;11.73;;;;;;;-4.48;78.51;100466.75;4927452;28;20058;-73
2022/11/25 08:08:28;;;;;;;23.38;11.00;;;;;;;-4.48;78.47;100477.16;4949610;28;20122;-71
2022/11/25 08:10:52;;;;;;;17.38;10.35;;;;;;;-4.42;78.49;100471.13;4943892;28;20171;-72
2022/11/25 08:13:17;;;;;;;16.27;9.25;;;;;;;-4.47;78.59;100475.44;4928667;28;20068;-74
2022/11/25 08:15:41;;;;;;;22.98;10.32;;;;;;;-4.47;79.15;100476.31;4909242;28;20047;-69
2022/11/25 08:18:07;;;;;;;15.52;9.05;;;;;;;-4.43;78.75;100483.28;4941101;28;20042;-68
2022/11/25 08:20:31;;;;;;;14.23;6.20;;;;;;;-4.19;78.28;100472.03;4910559;28;20043;-69
2022/11/25 08:22:56;;;;;;;23.65;10.70;;;;;;;-4.38;78.15;100473.72;4936593;28;20117;-69
2022/11/25 08:25:21;;;;;;;22.00;10.93;;;;;;;-4.47;78.38;100470.22;4938081;28;20050;-67
2022/11/25 08:27:46;;;;;;;21.27;11.00;;;;;;;-4.49;78.42;100469.34;4927911;28;20047;-69
2022/11/25 08:30:11;;;;;;;19.08;10.43;;;;;;;-4.48;78.59;100484.09;4906428;28;20042;-70
2022/11/25 08:32:37;;;;;;;19.25;10.02;;;;;;;-4.42;78.93;100476.34;4913663;28;20054;-68
2022/11/25 08:35:02;;;;;;;24.50;10.27;;;;;;;-4.48;78.84;100473.69;4936780;28;20097;-68
2022/11/25 08:37:30;;;;;;;20.60;9.57;;;;;;;-4.35;78.55;100479.81;4919213;28;20039;-68
2022/11/25 08:39:54;;;;;;;15.02;6.03;;;;;;;-4.32;78.59;100470.28;4933815;28;20421;-69
2022/11/25 08:42:19;;;;;;;14.80;6.35;;;;;;;-4.33;78.73;100481.56;4939178;28;20449;-68
2022/11/25 08:44:44;;;;;;;16.40;9.20;;;;;;;-4.42;78.02;100478.94;4922030;28;20409;-69
2022/11/25 08:47:09;;;;;;;23.75;10.43;;;;;;;-4.44;78.71;100480.66;4905757;28;20470;-70
2022/11/25 08:49:33;;;;;;;16.65;9.10;;;;;;;-4.41;78.69;100478.94;4921754;28;20436;-71
2022/11/25 08:51:58;;;;;;;20.83;10.85;;;;;;;-4.36;79.07;100478.06;4921616;28;20366;-70
2022/11/25 08:54:22;;;;;;;15.57;8.80;;;;;;;-4.25;79.07;100472.00;4902726;29;20418;-70
2022/11/25 08:56:47;;;;;;;18.40;10.32;;;;;;;-4.25;78.65;100481.56;4918922;28;20113;-70
2022/11/25 08:59:12;;;;;;;15.52;7.90;;;;;;;-4.09;78.28;100479.00;4920917;28;20141;-69
2022/11/25 09:01:37;;;;;;;17.23;9.43;;;;;;;-4.12;78.46;100473.78;4911609;28;20066;-70
2022/11/25 09:04:01;;;;;;;20.52;10.52;;;;;;;-4.27;78.45;100478.94;4918844;28;20034;-70
2022/11/25 09:06:27;;;;;;;20.20;9.82;;;;;;;-4.21;78.10;100484.19;4902865;29;20043;-68
2022/11/25 09:08:55;;;;;;;18.38;9.88;;;;;;;-4.29;77.97;100475.50;4933122;28;20047;-69
2022/11/25 09:11:19;;;;;;;19.55;10.57;;;;;;;-4.29;78.06;100487.66;4938951;28;20074;-71
2022/11/25 09:13:44;;;;;;;22.67;9.30;;;;;;;-4.25;78.52;100485.03;4921195;28;20077;-69
2022/11/25 09:16:09;;;;;;;20.40;9.20;;;;;;;-4.21;78.69;100492.00;4938937;28;20112;-69
2022/11/25 09:18:35;;;;;;;23.88;10.38;;;;;;;-4.16;78.11;100486.78;4921618;28;20065;-69
2022/11/25 09:21:09;;;;;;;19.65;9.70;;;;;;;-4.18;77.77;100488.53;4921622;28;20463;-69
2022/11/25 09:23:34;;;;;;;16.98;9.27;;;;;;;-4.27;77.95;100489.34;4918055;28;20039;-70
2022/11/25 09:25:59;;;;;;;14.30;8.25;;;;;;;-4.26;78.12;100485.88;4929311;28;20054;-70
2022/11/25 09:28:25;;;;;;;23.38;10.07;;;;;;;-4.26;78.48;100482.41;4938328;28;20123;-70
2022/11/25 09:30:50;;;;;;;17.33;9.18;;;;;;;-4.26;78.37;100490.22;4920873;28;20042;-68
2022/11/25 09:33:16;;;;;;;19.85;10.48;;;;;;;-4.26;78.87;100478.09;4920786;28;20050;-69
2022/11/25 09:35:41;;;;;;;13.70;6.22;;;;;;;-4.11;78.36;100474.63;4937953;28;20050;-69
2022/11/25 09:38:06;;;;;;;14.20;8.05;;;;;;;-4.06;78.33;100472.88;4908394;28;20069;-67
2022/11/25 09:40:39;;;;;;;17.50;9.05;;;;;;;-4.16;78.49;100466.81;4920458;28;20042;-72
2022/11/25 09:46:41;;;;;;;13.00;6.10;;;;;;;-4.08;77.56;100469.44;4916278;28;20077;-69
2022/11/25 09:49:45;;;;;;;14.70;8.75;;;;;;;-4.17;77.59;100472.88;4908416;28;20055;-69
2022/11/25 09:52:26;;;;;;;18.50;8.10;;;;;;;-4.15;77.24;100478.97;4906615;28;20038;-70
2022/11/25 09:55:05;;;;;;;18.05;8.50;;;;;;;-4.23;77.91;100475.50;4938331;28;20070;-69
2022/11/25 09:57:42;;;;;;;17.67;8.40;;;;;;;-4.04;77.17;100492.88;4904607;28;20057;-69
2022/11/25 10:00:13;;;;;;;13.68;6.40;;;;;;;-4.12;76.99;100488.53;4920650;28;20055;-70
2022/11/25 10:02:40;;;;;;;13.95;7.32;;;;;;;-4.04;76.02;100477.25;4937848;28;20093;-72
2022/11/25 10:05:13;;;;;;;18.63;9.05;;;;;;;-4.11;76.08;100483.31;4937592;28;20058;-70
2022/11/25 10:07:43;;;;;;;15.27;7.22;;;;;;;-4.18;75.51;100484.19;4937848;28;20516;-71
2022/11/25 10:10:25;;;;;;;15.65;7.68;;;;;;;-4.23;75.96;100485.91;4888936;28;20046;-70
2022/11/25 10:12:54;;;;;;;17.55;7.75;;;;;;;-4.30;76.28;100493.72;4903294;28;20055;-71
2022/11/25 10:15:25;;;;;;;14.75;7.00;;;;;;;-4.22;76.56;100489.38;4920606;28;20043;-71
2022/11/25 10:17:54;;;;;;;15.32;6.63;;;;;;;-4.12;76.62;100489.41;4937581;28;20125;-71
2022/11/25 10:20:29;;;;;;;15.02;8.38;;;;;;;-4.19;76.97;100485.06;4909631;28;20047;-69
2022/11/25 10:23:09;;;;;;;11.68;8.07;;;;;;;-4.16;77.19;100491.97;4935913;28;20082;-71
2022/11/25 10:25:41;;;;;;;15.40;7.95;;;;;;;-4.14;76.56;100504.13;4926159;28;20994;-70
2022/11/25 10:28:21;;;;;;;15.82;7.63;;;;;;;-4.08;77.14;100500.69;4901611;29;20043;-71
2022/11/25 10:31:04;;;;;;;14.57;8.23;;;;;;;-4.14;77.29;100521.50;4919368;28;20053;-71
2022/11/25 10:33:51;;;;;;;9.00;4.68;;;;;;;-3.98;77.28;100518.06;4920818;28;20034;-69
2022/11/25 10:36:16;;;;;;;16.13;8.90;;;;;;;-4.04;76.36;100531.94;4905541;28;20058;-70
2022/11/25 10:39:25;;;;;;;10.20;4.85;;;;;;;-3.90;76.38;100523.25;4920152;28;20074;-70
2022/11/25 10:42:02;;;;;;;17.55;9.88;;;;;;;-4.07;75.54;100529.34;4917683;28;20090;-70
2022/11/25 10:44:39;;;;;;;16.67;8.75;;;;;;;-3.95;75.03;100525.84;4918407;28;20142;-71
2022/11/25 10:47:31;;;;;;;11.10;4.97;;;;;;;-3.97;73.94;100522.41;4917138;28;20113;-71
2022/11/25 10:50:15;;;;;;;19.45;10.45;;;;;;;-4.18;74.25;100528.44;4904628;28;20046;-70
2022/11/25 10:52:56;;;;;;;6.72;4.97;;;;;;;-4.04;74.34;100539.72;4919991;28;20045;-70
2022/11/25 10:55:32;;;;;;;13.55;7.63;;;;;;;-4.11;74.15;100539.72;4919883;28;20039;-71
2022/11/25 10:57:57;;;;;;;18.10;8.73;;;;;;;-4.16;73.58;100538.84;4931856;28;20051;-71
2022/11/25 11:00:35;;;;;;;10.95;6.60;;;;;;;-4.21;74.60;100531.03;4923927;28;20090;-68
2022/11/25 11:03:23;;;;;;;9.18;5.88;;;;;;;-4.14;73.86;100540.59;4924415;28;20054;-71
2022/11/25 11:05:50;;;;;;;14.75;8.82;;;;;;;-4.25;73.42;100534.50;4908134;28;20050;-75
2022/11/25 11:08:19;;;;;;;17.92;8.13;;;;;;;-4.46;74.29;100524.03;4917332;28;20054;-70
2022/11/25 11:10:45;;;;;;;16.40;8.60;;;;;;;-4.51;74.86;100518.78;4932433;28;20043;-71
2022/11/25 11:13:31;;;;;;;12.27;7.88;;;;;;;-4.30;75.38;100531.03;4911176;28;20034;-68
2022/11/25 11:15:56;;;;;;;14.50;7.38;;;;;;;-4.22;75.10;100529.28;4937562;28;20137;-68
2022/11/25 11:18:38;;;;;;;22.45;11.55;;;;;;;-4.42;75.25;100524.03;4920624;28;20193;-68
2022/11/25 11:21:06;;;;;;;13.73;6.18;;;;;;;-4.49;75.79;100531.81;4940048;28;20061;-66
2022/11/25 11:23:46;;;;;;;18.75;9.75;;;;;;;-4.45;75.88;100533.56;4940500;28;20049;-67
2022/11/25 11:26:30;;;;;;;17.42;9.15;;;;;;;-4.46;76.03;100530.09;4923231;28;20050;-69
2022/11/25 11:29:00;;;;;;;15.63;8.25;;;;;;;-4.42;76.14;100534.47;4916272;28;20043;-69
2022/11/25 11:31:40;;;;;;;24.25;11.00;;;;;;;-4.44;76.36;100537.91;4933813;28;20783;-71
2022/11/25 11:34:17;;;;;;;16.25;8.98;;;;;;;-4.40;76.37;100544.84;4922757;28;20035;-70